createdAt,value
2022-12-17T07:12:36.504Z,24.00
2022-12-17T07:59:36.005Z,180.00
2022-12-17T08:08:35.885Z,228.00
2022-12-17T08:09:35.879Z,232.00
2022-12-17T08:14:35.819Z,248.00
2022-12-17T09:54:36.696Z,740.00
2022-12-17T09:55:34.688Z,712.00
2022-12-17T09:56:34.679Z,668.00
2022-12-17T09:57:36.666Z,652.00
2022-12-17T09:58:34.650Z,628.00
2022-12-17T09:59:34.639Z,604.00
2022-12-17T10:00:36.629Z,604.00
2022-12-17T10:16:34.451Z,692.00
2022-12-17T10:17:34.443Z,692.00
2022-12-17T10:18:34.425Z,680.00
2022-12-17T10:19:34.416Z,664.00
2022-12-17T10:20:36.401Z,672.00
2022-12-17T10:21:34.397Z,708.00
2022-12-17T10:22:37.885Z,700.00
2022-12-17T10:23:34.816Z,712.00
2022-12-17T10:24:34.359Z,752.00
2022-12-17T10:25:34.349Z,772.00
2022-12-17T10:26:34.337Z,796.00
2022-12-17T10:27:34.328Z,796.00
2022-12-17T10:28:34.314Z,788.00
2022-12-17T10:29:34.304Z,836.00
2022-12-17T10:30:36.294Z,864.00
2022-12-17T10:31:34.375Z,864.00
2022-12-17T10:32:36.270Z,840.00
2022-12-17T10:33:34.625Z,908.00
2022-12-17T10:34:34.248Z,908.00
2022-12-17T10:35:34.240Z,832.00
2022-12-17T10:36:34.224Z,804.00
2022-12-17T10:37:34.216Z,808.00
2022-12-17T10:38:34.202Z,832.00
2022-12-17T10:39:34.213Z,864.00
2022-12-17T10:40:34.178Z,860.00
2022-12-17T10:41:34.166Z,832.00
2022-12-17T10:42:34.672Z,820.00
2022-12-17T10:43:34.476Z,816.00
2022-12-17T10:44:34.139Z,824.00
2022-12-17T10:45:34.123Z,856.00
2022-12-17T10:59:33.968Z,916.00
2022-12-17T11:00:35.951Z,868.00
2022-12-17T11:01:34.073Z,808.00
2022-12-17T11:02:34.035Z,740.00
2022-12-17T11:03:34.221Z,716.00
2022-12-17T11:04:33.905Z,704.00
2022-12-17T11:09:33.848Z,764.00
2022-12-17T11:10:33.840Z,812.00
2022-12-17T11:11:33.851Z,828.00
2022-12-17T11:12:33.819Z,792.00
2022-12-17T11:13:34.016Z,768.00
2022-12-17T11:14:33.801Z,744.00
2022-12-17T11:15:33.816Z,728.00
2022-12-17T11:16:33.874Z,708.00
2022-12-17T11:17:35.757Z,716.00
2022-12-17T11:18:33.749Z,744.00
2022-12-17T11:19:33.737Z,760.00
2022-12-17T11:20:33.728Z,756.00
2022-12-17T11:21:33.720Z,740.00
2022-12-17T11:22:33.708Z,720.00
2022-12-17T11:23:33.945Z,712.00
2022-12-17T11:24:33.684Z,700.00
2022-12-17T11:25:33.670Z,676.00
2022-12-17T11:26:33.658Z,656.00
2022-12-17T11:27:35.671Z,656.00
2022-12-17T11:28:33.636Z,664.00
2022-12-17T11:29:33.627Z,676.00
2022-12-17T11:30:33.619Z,672.00
2022-12-17T11:31:33.646Z,644.00
2022-12-17T11:32:35.592Z,612.00
2022-12-17T11:33:33.838Z,604.00
2022-12-17T11:34:33.569Z,600.00
2022-12-17T11:35:33.558Z,592.00
2022-12-17T11:36:39.067Z,588.00
2022-12-17T11:37:33.540Z,588.00
2022-12-17T11:38:33.768Z,596.00
2022-12-17T11:39:33.521Z,612.00
2022-12-17T11:40:33.501Z,628.00
2022-12-17T11:41:33.493Z,640.00
2022-12-17T11:42:33.478Z,672.00
2022-12-17T11:43:33.502Z,708.00
2022-12-17T11:44:33.461Z,708.00
2022-12-17T11:45:33.454Z,696.00
2022-12-17T11:46:35.490Z,668.00
2022-12-17T11:47:33.421Z,652.00
2022-12-17T11:48:33.414Z,632.00
2022-12-17T11:49:33.402Z,600.00
2022-12-17T11:50:33.389Z,604.00
2022-12-17T11:51:33.375Z,632.00
2022-12-17T11:52:33.372Z,640.00
2022-12-17T11:53:33.354Z,648.00
2022-12-17T11:54:33.344Z,692.00
2022-12-17T11:55:33.333Z,728.00
2022-12-17T12:18:33.072Z,528.00
2022-12-17T12:27:36.587Z,448.00
2022-12-17T12:31:33.022Z,484.00
2022-12-17T16:26:30.258Z,0.00
2022-12-17T17:51:02.785Z,0.00
2022-12-17T17:54:02.715Z,0.00
2022-12-17T18:08:02.562Z,0.00
2022-12-17T18:09:02.546Z,0.00
2022-12-17T18:10:02.540Z,0.00
2022-12-17T18:30:02.314Z,0.00
2022-12-17T18:31:02.412Z,0.00
2022-12-17T20:30:00.981Z,0.00
2022-12-17T20:43:00.846Z,0.00
2022-12-17T22:45:59.557Z,0.00
